Time;durP1;ratioP1;P1;durP2;ratioP2;P2;SDS_P1;SDS_P2;PMS_P1;PMS_P2;Temp;Humidity;BMP_temperature;BMP_pressure;BME280_temperature;BME280_humidity;BME280_pressure;Samples;Min_cycle;Max_cycle;Signal;HPM_P1;HPM_P2
2022/05/15 00:01:49;;;;;;;13.23;8.35;;;;;;;19.49;100.00;100052.97;5027886;28;20302;-73
2022/05/15 00:04:15;;;;;;;10.38;7.97;;;;;;;19.49;100.00;100036.31;5027558;28;20196;-73
2022/05/15 00:06:42;;;;;;;9.38;7.88;;;;;;;19.50;100.00;100040.69;5026672;28;20253;-73
2022/05/15 00:09:09;;;;;;;11.40;8.45;;;;;;;19.64;100.00;100051.75;4999472;28;20203;-73
2022/05/15 00:11:38;;;;;;;12.50;8.00;;;;;;;19.73;100.00;100051.53;4979720;28;20205;-73
2022/05/15 00:14:05;;;;;;;10.90;8.40;;;;;;;19.59;100.00;100043.97;5024008;28;20211;-73
2022/05/15 00:16:32;;;;;;;12.38;7.32;;;;;;;19.45;100.00;100024.13;5032310;28;20235;-73
2022/05/15 00:18:59;;;;;;;18.60;8.32;;;;;;;19.48;100.00;100050.34;5030724;28;20657;-73
2022/05/15 00:21:26;;;;;;;9.85;7.93;;;;;;;19.58;100.00;100050.16;5032016;28;20210;-73
2022/05/15 00:23:54;;;;;;;8.73;7.82;;;;;;;19.46;100.00;100028.50;5031907;28;20645;-73
2022/05/15 00:26:21;;;;;;;8.77;7.72;;;;;;;19.60;100.00;100036.94;5031611;28;20199;-73
2022/05/15 00:28:49;;;;;;;11.15;8.13;;;;;;;19.66;100.00;100049.94;5031524;28;20196;-73
2022/05/15 00:31:15;;;;;;;8.50;7.80;;;;;;;19.57;100.00;100050.16;5030976;28;20192;-73
2022/05/15 02:05:24;;;;;;;12.07;9.65;;;;;;;19.56;100.00;100059.81;5109146;27;20542;-74
2022/05/15 02:07:51;;;;;;;13.15;9.30;;;;;;;19.64;100.00;100067.56;5108888;28;20194;-74
2022/05/15 02:10:19;;;;;;;11.75;9.75;;;;;;;19.34;100.00;100071.66;5108927;28;20620;-72
2022/05/15 02:12:46;;;;;;;14.35;8.98;;;;;;;19.47;100.00;100074.94;5108795;28;20216;-73
2022/05/15 02:15:13;;;;;;;10.23;8.85;;;;;;;19.57;100.00;100076.47;5108163;28;20205;-73
2022/05/15 02:17:40;;;;;;;10.30;8.73;;;;;;;19.62;100.00;100087.78;5108723;28;20255;-73
2022/05/15 02:20:11;;;;;;;14.80;9.75;;;;;;;19.52;100.00;100067.81;5108671;28;20602;-73
2022/05/15 02:22:39;;;;;;;9.90;8.95;;;;;;;19.64;100.00;100091.22;5108631;28;20270;-73
2022/05/15 02:25:08;;;;;;;11.45;9.07;;;;;;;19.78;100.00;100091.78;5108242;28;20218;-73
2022/05/15 02:27:35;;;;;;;10.18;8.40;;;;;;;19.33;100.00;100052.38;5085965;28;20643;-73
2022/05/15 02:30:02;;;;;;;14.50;8.25;;;;;;;19.45;100.00;100072.34;5103572;28;20197;-73
2022/05/15 02:32:29;;;;;;;9.85;8.13;;;;;;;19.30;100.00;100094.53;5108498;28;20206;-73
2022/05/15 02:34:56;;;;;;;10.05;8.35;;;;;;;19.28;100.00;100096.31;5107998;28;20221;-73
2022/05/15 02:37:23;;;;;;;11.00;8.40;;;;;;;19.22;100.00;100099.09;5108519;28;20201;-73
2022/05/15 02:39:51;;;;;;;12.35;8.00;;;;;;;19.27;100.00;100077.94;5108372;28;20661;-73
2022/05/15 02:42:20;;;;;;;10.13;8.30;;;;;;;19.28;100.00;100091.06;5108167;28;20676;-73
2022/05/15 02:44:47;;;;;;;12.15;7.97;;;;;;;18.89;100.00;100070.81;5107911;28;20206;-73
2022/05/15 02:47:14;;;;;;;14.68;8.30;;;;;;;19.07;100.00;100085.38;5108430;28;20319;-73
2022/05/15 02:52:25;;;;;;;13.10;9.02;;;;;;;19.12;100.00;100084.38;5108019;28;20250;-73
2022/05/15 02:54:53;;;;;;;14.30;9.18;;;;;;;19.08;100.00;100090.59;5107337;28;20233;-74
2022/05/15 02:57:19;;;;;;;9.82;8.75;;;;;;;18.79;100.00;100069.25;5107438;28;20626;-74
2022/05/15 02:59:46;;;;;;;11.68;8.68;;;;;;;19.06;100.00;100091.50;5107890;28;20198;-75
2022/05/15 03:02:13;;;;;;;13.55;8.95;;;;;;;18.72;100.00;100047.50;5108071;28;20696;-74
2022/05/15 03:04:40;;;;;;;12.05;8.60;;;;;;;19.12;100.00;100084.38;5118052;28;20700;-74
2022/05/15 03:07:07;;;;;;;10.45;8.32;;;;;;;18.96;100.00;100090.84;5114319;28;20909;-74
2022/05/15 03:09:34;;;;;;;10.10;8.70;;;;;;;18.80;100.00;100063.09;5114654;28;20209;-74
2022/05/15 03:12:03;;;;;;;11.73;9.02;;;;;;;18.98;100.00;100091.66;5114609;28;20723;-74
2022/05/15 03:14:30;;;;;;;12.27;9.27;;;;;;;18.92;100.00;100085.66;5114181;28;20692;-73
2022/05/15 03:16:57;;;;;;;11.98;10.18;;;;;;;18.96;100.00;100077.69;5114284;28;20201;-74
2022/05/15 03:19:24;;;;;;;10.77;8.98;;;;;;;18.64;100.00;100080.03;5114325;28;20202;-73
2022/05/15 03:21:51;;;;;;;12.93;10.02;;;;;;;18.89;100.00;100080.47;5114360;28;20208;-74
2022/05/15 03:24:17;;;;;;;10.43;8.90;;;;;;;18.87;100.00;100093.63;5114115;28;20185;-74
2022/05/15 03:26:47;;;;;;;13.43;10.68;;;;;;;18.73;100.00;100064.97;5078437;28;20216;-73
2022/05/15 03:29:17;;;;;;;16.00;11.07;;;;;;;19.10;100.00;100095.81;5113958;28;20247;-75
2022/05/15 03:31:44;;;;;;;12.45;9.65;;;;;;;19.36;100.00;100098.81;5113995;28;20201;-74
2022/05/15 03:34:13;;;;;;;13.77;9.65;;;;;;;19.64;100.00;100114.91;5113663;28;20225;-74
2022/05/15 03:36:42;;;;;;;10.88;9.50;;;;;;;19.89;100.00;100117.88;5114320;28;20288;-74
2022/05/15 03:39:09;;;;;;;10.50;8.57;;;;;;;20.07;100.00;100086.72;5114263;28;20208;-74
2022/05/15 03:41:37;;;;;;;9.35;8.02;;;;;;;20.17;100.00;100125.09;5114130;28;20202;-74
2022/05/15 03:44:04;;;;;;;15.75;7.90;;;;;;;20.07;100.00;100105.16;5113638;28;20201;-74
2022/05/15 03:46:34;;;;;;;9.80;8.80;;;;;;;20.62;100.00;100103.81;5097510;28;20250;-74
2022/05/15 03:49:01;;;;;;;15.18;9.30;;;;;;;20.58;100.00;100121.47;5113794;28;20201;-73
2022/05/15 03:51:28;;;;;;;10.23;7.78;;;;;;;20.47;100.00;100120.91;5114041;28;20287;-73
2022/05/15 03:53:55;;;;;;;8.90;7.65;;;;;;;21.25;100.00;100122.38;5113160;28;20225;-74
2022/05/15 03:56:49;;;;;;;7.93;6.85;;;;;;;20.92;100.00;100095.13;5113477;28;20201;-74
2022/05/15 03:59:11;;;;;;;7.70;6.93;;;;;;;21.77;100.00;100135.81;5112968;28;21150;-74
2022/05/15 04:01:39;;;;;;;8.38;7.57;;;;;;;21.84;100.00;100139.13;5113745;28;20207;-74
2022/05/15 04:04:06;;;;;;;7.15;6.55;;;;;;;21.69;100.00;100156.28;5093935;28;20229;-74
2022/05/15 04:06:33;;;;;;;8.40;7.20;;;;;;;22.34;100.00;100152.56;5093319;28;20688;-74
2022/05/15 04:09:00;;;;;;;7.93;6.85;;;;;;;22.05;100.00;100156.97;5090105;28;20198;-74
2022/05/15 04:11:27;;;;;;;10.10;6.70;;;;;;;22.22;100.00;100127.44;5113580;28;20801;-74
2022/05/15 04:13:54;;;;;;;8.52;7.05;;;;;;;22.46;100.00;100149.53;5077597;28;20720;-73
2022/05/15 04:16:21;;;;;;;9.57;6.63;;;;;;;22.29;100.00;100173.00;5111755;28;20684;-74
2022/05/15 04:18:49;;;;;;;7.15;6.38;;;;;;;22.05;100.00;100159.63;5113487;28;20192;-73
2022/05/15 04:21:16;;;;;;;7.30;6.55;;;;;;;21.97;100.00;100140.53;5113035;28;20205;-74
2022/05/15 04:23:42;;;;;;;7.35;6.65;;;;;;;22.46;100.00;100126.63;5113282;28;20201;-75
2022/05/15 04:26:09;;;;;;;19.35;13.85;;;;;;;23.50;100.00;100164.50;5112850;28;20212;-71
2022/05/15 04:28:36;;;;;;;7.60;5.85;;;;;;;23.69;100.00;100177.91;5094118;28;20198;-73
2022/05/15 04:31:04;;;;;;;7.40;6.00;;;;;;;22.72;100.00;100183.97;5112507;28;20284;-73
2022/05/15 04:33:31;;;;;;;8.90;6.20;;;;;;;22.04;100.00;100188.75;5112791;28;20198;-73
2022/05/15 04:35:59;;;;;;;9.98;6.80;;;;;;;21.73;100.00;100167.59;5112764;28;20193;-73
2022/05/15 04:38:26;;;;;;;10.02;6.65;;;;;;;21.63;100.00;100184.63;5113127;28;20197;-74
2022/05/15 04:40:53;;;;;;;9.93;7.18;;;;;;;21.26;100.00;100169.81;5112593;28;20212;-74
2022/05/15 04:43:20;;;;;;;10.15;7.93;;;;;;;20.89;100.00;100129.50;5112094;28;20239;-74
2022/05/15 04:45:47;;;;;;;9.98;7.13;;;;;;;21.15;100.00;100192.13;5112679;28;20205;-74
2022/05/15 04:48:15;;;;;;;10.65;7.80;;;;;;;21.41;100.00;100197.53;5092853;28;20212;-75
2022/05/15 04:50:41;;;;;;;7.25;6.60;;;;;;;21.30;100.00;100186.41;5112447;28;20251;-77
2022/05/15 04:53:10;;;;;;;10.10;7.53;;;;;;;21.57;100.00;100193.59;5112388;28;20250;-78
2022/05/15 04:55:37;;;;;;;7.05;6.45;;;;;;;22.23;100.00;100185.47;5112601;28;20221;-82
2022/05/15 04:58:04;;;;;;;6.28;5.70;;;;;;;23.11;100.00;100229.38;5114230;28;20642;-80
2022/05/15 05:00:31;;;;;;;8.60;6.53;;;;;;;22.60;100.00;100202.81;5111960;28;20204;-81
2022/05/15 05:02:58;;;;;;;8.07;5.75;;;;;;;23.27;100.00;100208.53;5075594;28;20202;-82
2022/05/15 05:05:25;;;;;;;7.30;6.57;;;;;;;23.58;100.00;100235.69;5093719;28;20217;-82
2022/05/15 05:07:52;;;;;;;6.63;6.03;;;;;;;23.66;100.00;100239.78;5092304;28;20198;-83
2022/05/15 05:10:20;;;;;;;8.30;6.22;;;;;;;23.85;100.00;100239.13;5092155;28;20194;-84
2022/05/15 05:12:47;;;;;;;6.47;5.80;;;;;;;24.42;100.00;100244.03;5094846;28;20259;-82
2022/05/15 05:15:14;;;;;;;6.70;5.53;;;;;;;24.42;100.00;100252.84;5067013;28;20226;-84
2022/05/15 05:17:41;;;;;;;8.07;5.93;;;;;;;23.49;100.00;100243.94;5099619;28;20820;-82
2022/05/15 05:20:10;;;;;;;9.52;5.82;;;;;;;23.94;100.00;100250.22;5090244;28;20213;-83
2022/05/15 05:22:37;;;;;;;9.55;5.65;;;;;;;23.31;100.00;100240.13;5090355;28;20194;-82
2022/05/15 05:25:04;;;;;;;7.53;6.32;;;;;;;23.67;100.00;100251.25;5091225;28;20202;-82
2022/05/15 05:27:34;;;;;;;7.40;6.18;;;;;;;24.06;100.00;100249.78;5088504;28;20202;-82
2022/05/15 05:30:01;;;;;;;6.45;5.80;;;;;;;25.08;100.00;100259.03;5089678;28;20835;-79
2022/05/15 05:32:29;;;;;;;11.00;6.05;;;;;;;24.46;100.00;100253.59;5108454;28;20193;-83
2022/05/15 05:34:55;;;;;;;6.55;5.72;;;;;;;24.31;100.00;100270.09;5109558;28;20724;-79
2022/05/15 05:37:22;;;;;;;7.53;5.72;;;;;;;24.82;100.00;100262.75;5109835;28;20201;-78
2022/05/15 05:39:49;;;;;;;9.77;6.13;;;;;;;25.28;100.00;100275.00;5112777;28;20206;-83
2022/05/15 05:42:16;;;;;;;8.52;6.00;;;;;;;24.26;100.00;100221.72;5110419;28;20216;-82
2022/05/15 05:44:44;;;;;;;9.43;6.30;;;;;;;24.31;100.00;100276.25;5111092;28;20189;-79
2022/05/15 05:47:10;;;;;;;10.13;6.38;;;;;;;24.61;100.00;100279.50;5092310;28;20209;-74
2022/05/15 05:49:37;;;;;;;9.48;6.68;;;;;;;24.32;100.00;100271.81;5111143;28;20652;-78
2022/05/15 05:52:05;;;;;;;10.23;6.25;;;;;;;24.17;100.00;100283.84;5111578;28;20277;-80
2022/05/15 05:54:31;;;;;;;7.72;6.95;;;;;;;23.73;100.00;100269.53;5111283;28;20228;-80
2022/05/15 05:56:59;;;;;;;7.63;6.53;;;;;;;24.09;100.00;100280.59;5111637;28;20581;-79
2022/05/15 05:59:25;;;;;;;9.32;6.25;;;;;;;23.90;100.00;100261.84;5111233;28;20197;-81
2022/05/15 06:01:54;;;;;;;7.18;6.50;;;;;;;23.92;100.00;100272.41;5110263;28;20205;-79
2022/05/15 06:07:05;;;;;;;7.55;4.72;;;;;;;23.29;100.00;100271.09;5109990;28;20208;-77
2022/05/15 06:09:32;;;;;;;7.00;6.00;;;;;;;23.19;100.00;100275.78;5111533;28;20212;-77
2022/05/15 06:11:58;;;;;;;10.23;6.70;;;;;;;22.90;100.00;100252.06;5111177;28;20639;-78
2022/05/15 06:14:25;;;;;;;8.18;6.35;;;;;;;22.66;100.00;100284.56;5072928;28;20668;-79
2022/05/15 06:16:53;;;;;;;11.07;6.22;;;;;;;22.57;100.00;100274.28;5111102;28;20734;-73
2022/05/15 06:19:20;;;;;;;8.43;6.38;;;;;;;22.84;100.00;100254.06;5108876;28;20204;-75
2022/05/15 06:21:47;;;;;;;7.95;5.95;;;;;;;22.74;100.00;100272.00;5091561;28;20198;-78
2022/05/15 06:24:14;;;;;;;9.80;5.60;;;;;;;22.58;100.00;100271.59;5111241;28;20205;-79
2022/05/15 06:26:41;;;;;;;8.05;5.80;;;;;;;22.72;100.00;100273.84;5110932;28;20193;-80
2022/05/15 06:29:08;;;;;;;7.97;5.40;;;;;;;23.05;100.00;100251.59;5111265;28;20252;-80
2022/05/15 06:31:34;;;;;;;9.73;4.88;;;;;;;23.44;100.00;100275.00;5111281;28;20269;-79
2022/05/15 06:34:02;;;;;;;5.60;5.10;;;;;;;22.50;100.00;100256.88;5110926;28;20190;-79
2022/05/15 06:36:29;;;;;;;5.15;4.50;;;;;;;22.35;100.00;100270.56;5092481;28;20615;-82
2022/05/15 06:38:56;;;;;;;7.82;6.03;;;;;;;22.98;100.00;100271.22;5111368;28;20212;-78
2022/05/15 06:41:24;;;;;;;6.78;6.03;;;;;;;23.22;100.00;100262.47;5114622;28;20205;-85
2022/05/15 06:43:51;;;;;;;7.72;6.38;;;;;;;23.58;100.00;100268.31;5114853;28;20193;-72
2022/05/15 06:46:18;;;;;;;8.30;7.00;;;;;;;24.12;100.00;100270.75;5114944;28;20224;-73
2022/05/15 06:48:45;;;;;;;9.18;6.18;;;;;;;23.98;100.00;100280.97;5092021;28;20202;-73
2022/05/15 06:51:16;;;;;;;6.50;6.00;;;;;;;24.16;100.00;100283.00;5094481;28;20194;-76
2022/05/15 06:53:43;;;;;;;7.43;6.72;;;;;;;24.36;100.00;100289.34;5094528;28;20289;-77
2022/05/15 06:58:54;;;;;;;6.10;5.60;;;;;;;24.81;100.00;100287.53;5099621;28;20205;-73
2022/05/15 07:01:21;;;;;;;7.38;6.63;;;;;;;24.29;100.00;100306.41;5114725;28;20673;-77
2022/05/15 07:03:48;;;;;;;6.97;6.30;;;;;;;24.86;100.00;100295.34;5114152;28;20236;-75
2022/05/15 07:06:16;;;;;;;6.60;6.10;;;;;;;24.76;100.00;100305.41;5095443;28;20194;-79
2022/05/15 07:08:44;;;;;;;7.47;6.50;;;;;;;24.11;100.00;100294.66;5114563;28;20656;-78
2022/05/15 07:11:12;;;;;;;14.18;6.60;;;;;;;23.89;100.00;100291.06;5115176;28;20591;-79
2022/05/15 07:13:38;;;;;;;7.57;6.30;;;;;;;23.89;100.00;100309.59;5115394;28;20209;-80
2022/05/15 07:16:06;;;;;;;9.13;5.72;;;;;;;24.02;100.00;100309.09;5105920;28;20229;-79
2022/05/15 07:18:33;;;;;;;6.50;5.88;;;;;;;24.15;100.00;100299.81;5114533;28;20202;-80
2022/05/15 07:21:00;;;;;;;8.05;6.80;;;;;;;24.23;100.00;100314.56;5113885;28;20611;-79
2022/05/15 07:23:28;;;;;;;10.77;6.72;;;;;;;23.80;100.00;100308.13;5094640;28;20190;-77
2022/05/15 07:25:55;;;;;;;8.20;6.63;;;;;;;23.06;100.00;100293.00;5113396;28;20616;-78
2022/05/15 07:28:23;;;;;;;7.18;6.43;;;;;;;23.20;100.00;100259.00;5114087;28;20231;-78
2022/05/15 07:30:50;;;;;;;7.82;6.75;;;;;;;23.39;100.00;100313.97;5111271;28;20213;-78
2022/05/15 07:33:19;;;;;;;11.45;6.80;;;;;;;23.72;100.00;100319.94;5114064;28;20193;-78
2022/05/15 07:35:46;;;;;;;7.93;6.40;;;;;;;24.02;100.00;100319.69;5113381;28;20249;-78
2022/05/15 07:38:13;;;;;;;7.40;6.45;;;;;;;23.80;100.00;100300.19;5113630;28;20201;-77
2022/05/15 07:40:41;;;;;;;9.15;6.65;;;;;;;23.85;100.00;100313.28;5113485;28;20262;-79
2022/05/15 07:43:10;;;;;;;6.63;5.65;;;;;;;23.92;100.00;100325.38;5112950;28;20197;-78
2022/05/15 07:45:37;;;;;;;7.13;6.50;;;;;;;23.90;100.00;100296.28;5113624;28;20198;-77
2022/05/15 07:48:06;;;;;;;6.50;5.97;;;;;;;24.05;100.00;100326.66;5113696;28;20205;-78
2022/05/15 07:50:34;;;;;;;7.80;6.32;;;;;;;24.18;100.00;100318.25;5112856;28;20194;-77
2022/05/15 07:53:01;;;;;;;10.85;6.03;;;;;;;24.15;100.00;100328.94;5113482;28;20202;-77
2022/05/15 07:55:28;;;;;;;7.25;6.25;;;;;;;24.10;100.00;100330.03;5112350;28;20221;-78
2022/05/15 07:57:56;;;;;;;7.78;6.15;;;;;;;23.87;100.00;100338.78;5113020;28;20212;-79
2022/05/15 08:00:23;;;;;;;6.85;6.00;;;;;;;23.87;100.00;100322.88;5113378;28;20201;-79
2022/05/15 08:02:50;;;;;;;8.07;5.80;;;;;;;24.28;100.00;100349.72;5112933;28;20201;-77
2022/05/15 08:08:05;;;;;;;5.85;5.32;;;;;;;24.27;100.00;100350.63;5113249;28;20212;-78
2022/05/15 08:10:34;;;;;;;6.38;5.28;;;;;;;24.29;100.00;100340.84;5113288;28;20205;-76
2022/05/15 08:13:03;;;;;;;5.63;4.95;;;;;;;24.49;100.00;100356.88;5093941;28;20267;-77
2022/05/15 08:15:31;;;;;;;8.77;5.88;;;;;;;24.62;100.00;100364.28;5111767;28;20746;-76
2022/05/15 08:23:33;;;;;;;8.63;5.93;;;;;;;24.76;98.85;100361.09;5112337;28;20259;-77
2022/05/15 08:23:36;;;;;;;6.45;5.03;;;;;;;25.06;100.00;100367.91;5095509;28;20695;-74
2022/05/15 08:26:06;;;;;;;6.85;5.30;;;;;;;25.37;92.99;100371.97;5109315;28;20209;-76
2022/05/15 08:28:35;;;;;;;9.25;5.30;;;;;;;25.66;87.12;100355.72;5103353;28;20275;-76
2022/05/15 08:31:02;;;;;;;10.38;4.80;;;;;;;25.62;86.01;100372.72;5111651;28;20201;-77
2022/05/15 08:33:30;;;;;;;5.85;5.30;;;;;;;25.11;89.14;100371.22;5112482;28;20204;-76
2022/05/15 08:35:57;;;;;;;7.45;4.80;;;;;;;24.72;94.16;100370.13;5111949;28;20217;-77
2022/05/15 08:38:24;;;;;;;5.63;5.15;;;;;;;24.91;92.07;100373.81;5112156;28;20204;-75
2022/05/15 08:40:56;;;;;;;6.03;5.35;;;;;;;25.11;88.80;100360.63;5111839;28;20575;-76
2022/05/15 08:43:30;;;;;;;7.60;5.30;;;;;;;25.27;88.52;100342.28;5111615;28;21767;-76
2022/05/15 08:46:04;;;;;;;7.15;5.03;;;;;;;25.32;85.83;100379.28;5111742;28;20215;-75
2022/05/15 08:48:36;;;;;;;8.32;5.22;;;;;;;24.75;88.90;100370.00;5112138;28;20719;-77
2022/05/15 08:51:05;;;;;;;6.85;5.28;;;;;;;23.92;95.67;100360.69;5111578;27;20661;-77
2022/05/15 08:53:35;;;;;;;8.65;4.97;;;;;;;24.29;94.18;100388.56;5111233;28;20241;-75
2022/05/15 08:56:07;;;;;;;6.80;5.63;;;;;;;24.38;91.63;100383.78;5111530;28;20225;-76
2022/05/15 08:58:40;;;;;;;10.57;5.55;;;;;;;24.02;93.19;100370.03;5111694;28;20212;-77
2022/05/15 09:01:12;;;;;;;7.30;4.90;;;;;;;23.35;92.72;100249.69;5101424;28;20706;-76
2022/05/15 09:03:39;;;;;;;11.57;5.47;;;;;;;24.00;94.85;100398.38;5106694;28;20229;-75
2022/05/15 09:06:11;;;;;;;6.22;5.35;;;;;;;23.71;99.10;100401.16;5111378;28;20198;-76
2022/05/15 09:08:54;;;;;;;9.60;5.68;;;;;;;23.29;100.00;100394.59;5111639;28;20687;-76
2022/05/15 09:11:39;;;;;;;7.45;5.82;;;;;;;23.35;100.00;100397.91;5091331;28;20196;-75
2022/05/15 09:14:13;;;;;;;9.13;4.97;;;;;;;23.53;100.00;100397.34;5095722;28;20209;-76
2022/05/15 09:16:52;;;;;;;5.88;5.28;;;;;;;23.02;100.00;100378.66;5110912;28;20216;-75
2022/05/15 09:19:19;;;;;;;5.63;5.20;;;;;;;23.10;99.97;100366.06;5111380;28;20197;-76
2022/05/15 09:21:46;;;;;;;7.55;5.20;;;;;;;23.19;100.00;100397.50;5092613;28;20220;-75
2022/05/15 09:24:29;;;;;;;6.78;5.03;;;;;;;23.60;98.47;100400.63;5110739;28;20663;-77
2022/05/15 09:27:11;;;;;;;6.07;4.72;;;;;;;23.47;97.38;100386.09;5111208;28;20227;-76
2022/05/15 09:29:38;;;;;;;8.02;5.40;;;;;;;23.46;98.41;100394.94;5108277;28;20719;-77
2022/05/15 09:32:15;;;;;;;6.82;4.88;;;;;;;23.54;100.00;100400.84;5091114;28;20197;-77
2022/05/15 09:34:44;;;;;;;4.88;4.43;;;;;;;23.40;100.00;100419.78;5098504;28;20216;-76
2022/05/15 09:40:08;;;;;;;8.20;7.07;;;;;;;23.29;100.00;100413.13;5111284;28;20224;-80
2022/05/15 09:45:23;;;;;;;9.98;6.25;;;;;;;22.31;100.00;100404.53;5106305;27;20298;-74
2022/05/15 09:48:04;;;;;;;9.77;5.85;;;;;;;22.47;100.00;100410.28;5109559;28;20205;-77
2022/05/15 09:50:43;;;;;;;9.98;5.68;;;;;;;21.94;100.00;100393.25;5109455;28;20253;-77
2022/05/15 09:53:17;;;;;;;8.57;5.75;;;;;;;21.72;100.00;100403.47;5109522;28;20273;-76
2022/05/15 09:55:57;;;;;;;7.63;6.63;;;;;;;21.74;100.00;100425.38;5110031;28;20253;-74
2022/05/15 09:58:24;;;;;;;8.48;6.80;;;;;;;20.95;100.00;100353.41;5089733;28;20229;-73
2022/05/15 10:00:51;;;;;;;7.78;6.93;;;;;;;21.57;100.00;100419.66;5088458;28;20202;-74
2022/05/15 10:03:24;;;;;;;10.65;8.07;;;;;;;22.08;100.00;100421.00;5070502;28;20226;-74
2022/05/15 10:06:01;;;;;;;12.10;8.30;;;;;;;22.17;100.00;100422.53;5089829;28;20258;-74
2022/05/15 10:08:30;;;;;;;11.23;8.30;;;;;;;22.20;100.00;100423.31;5096413;28;20416;-74
2022/05/15 10:11:01;;;;;;;11.93;8.02;;;;;;;22.28;100.00;100403.75;5110736;28;20233;-74
2022/05/15 10:13:34;;;;;;;13.10;7.20;;;;;;;22.67;100.00;100429.97;5110832;28;20205;-74
2022/05/15 10:16:07;;;;;;;9.95;7.22;;;;;;;22.59;100.00;100420.47;5113248;28;20963;-74
2022/05/15 10:18:45;;;;;;;9.75;6.60;;;;;;;22.69;100.00;100421.97;5114816;28;20204;-74
2022/05/15 10:21:13;;;;;;;7.70;6.22;;;;;;;22.89;100.00;100430.22;5113352;28;20216;-74
2022/05/15 10:23:47;;;;;;;12.50;8.38;;;;;;;23.35;100.00;100439.38;5094472;28;20209;-73
2022/05/15 10:26:21;;;;;;;14.05;8.95;;;;;;;23.24;100.00;100415.91;5094538;28;20665;-74
2022/05/15 10:28:54;;;;;;;18.15;9.25;;;;;;;22.92;100.00;100435.41;5104980;28;20632;-74
2022/05/15 10:31:26;;;;;;;16.40;9.05;;;;;;;23.15;100.00;100437.34;5076508;28;20650;-73
2022/05/15 10:33:57;;;;;;;9.50;7.40;;;;;;;22.86;100.00;100425.00;5114381;28;21016;-75
2022/05/15 10:36:36;;;;;;;14.82;7.13;;;;;;;22.92;100.00;100432.75;5102381;28;20230;-73
2022/05/15 10:39:11;;;;;;;12.25;8.27;;;;;;;23.31;100.00;100425.38;5094218;28;20194;-76
2022/05/15 10:41:55;;;;;;;12.15;7.75;;;;;;;23.42;100.00;100428.59;5097761;28;20223;-74
2022/05/15 10:44:35;;;;;;;9.15;7.43;;;;;;;23.38;100.00;100418.09;5113571;28;20232;-76
2022/05/15 10:47:07;;;;;;;11.30;7.03;;;;;;;23.37;100.00;100437.53;5113672;28;20281;-75
2022/05/15 10:50:07;;;;;;;9.23;8.20;;;;;;;23.63;100.00;100435.81;5079581;28;20186;-75
2022/05/15 10:52:55;;;;;;;11.05;7.82;;;;;;;23.63;100.00;100429.66;5114015;28;20280;-76
2022/05/15 10:58:27;;;;;;;8.25;6.53;;;;;;;23.43;100.00;100442.69;5113586;28;20576;-75
2022/05/15 11:01:01;;;;;;;7.85;6.32;;;;;;;23.29;100.00;100419.28;5114382;28;20198;-75
2022/05/15 11:03:51;;;;;;;9.50;7.47;;;;;;;23.52;100.00;100416.78;5046089;28;20221;-75
2022/05/15 11:06:47;;;;;;;10.38;7.07;;;;;;;23.93;100.00;100444.53;5094593;28;20185;-73
2022/05/15 11:09:22;;;;;;;16.02;7.55;;;;;;;23.99;100.00;100438.16;5031229;28;20223;-74
2022/05/15 11:11:59;;;;;;;9.00;6.97;;;;;;;23.72;100.00;100424.06;5043775;28;20211;-73
2022/05/15 11:14:35;;;;;;;7.38;6.40;;;;;;;24.09;100.00;100428.97;5050198;28;20210;-73
2022/05/15 11:17:14;;;;;;;8.43;6.80;;;;;;;23.95;100.00;100440.03;5050720;28;20242;-76
2022/05/15 11:19:44;;;;;;;10.60;6.28;;;;;;;24.24;100.00;100438.19;5050719;28;20410;-74
2022/05/15 11:22:31;;;;;;;15.43;7.80;;;;;;;24.29;100.00;100434.50;5050059;28;20195;-75
2022/05/15 11:25:04;;;;;;;11.85;8.35;;;;;;;23.98;100.00;100426.69;5050814;28;20294;-75
2022/05/15 11:27:39;;;;;;;9.05;7.38;;;;;;;24.14;100.00;100437.66;5031763;28;20200;-76
2022/05/15 11:30:12;;;;;;;9.40;7.15;;;;;;;24.06;100.00;100440.53;5031058;28;20651;-76
2022/05/15 11:32:56;;;;;;;10.65;7.38;;;;;;;23.82;100.00;100399.00;5044745;28;20195;-75
2022/05/15 11:35:30;;;;;;;7.82;6.93;;;;;;;24.38;100.00;100436.78;5050868;28;20211;-78
2022/05/15 11:38:28;;;;;;;10.98;7.32;;;;;;;24.07;100.00;100439.63;5050267;28;20278;-76
2022/05/15 11:40:56;;;;;;;6.90;5.95;;;;;;;24.33;99.17;100440.53;4990948;28;20241;-75
2022/05/15 11:43:58;;;;;;;6.90;5.80;;;;;;;24.02;95.80;100412.41;4991768;28;20271;-76
2022/05/15 11:46:57;;;;;;;7.93;6.32;;;;;;;24.26;94.00;100437.22;4939631;28;20206;-76
2022/05/15 11:49:31;;;;;;;7.70;6.35;;;;;;;24.02;95.13;100444.22;4971717;28;20210;-75
2022/05/15 11:52:16;;;;;;;8.88;6.70;;;;;;;23.89;94.96;100427.00;4971221;28;20720;-74
2022/05/15 11:54:47;;;;;;;12.25;7.70;;;;;;;24.18;92.23;100410.16;4967053;28;20209;-75
2022/05/15 11:57:35;;;;;;;7.55;6.25;;;;;;;24.60;92.12;100428.94;4954451;28;20424;-75
2022/05/15 12:00:11;;;;;;;11.70;6.20;;;;;;;24.47;90.83;100401.97;4955801;28;20206;-75
2022/05/15 12:02:49;;;;;;;8.02;6.80;;;;;;;24.71;91.75;100432.06;4926130;28;20198;-77
2022/05/15 12:05:25;;;;;;;9.13;6.30;;;;;;;25.10;85.56;100425.25;4907413;28;20316;-75
2022/05/15 12:07:55;;;;;;;10.45;7.78;;;;;;;24.35;87.24;100352.09;4964742;28;20198;-75
2022/05/15 12:10:54;;;;;;;10.52;6.55;;;;;;;24.47;90.03;100409.09;4951973;29;20695;-73
2022/05/15 12:13:40;;;;;;;11.93;6.15;;;;;;;24.89;85.63;100410.16;4951955;29;20699;-74
2022/05/15 12:16:21;;;;;;;12.00;5.75;;;;;;;25.14;81.11;100404.78;4951917;28;20596;-75
2022/05/15 12:18:55;;;;;;;13.65;6.32;;;;;;;25.08;82.44;100397.03;5087567;28;20662;-75
2022/05/15 12:21:30;;;;;;;9.73;6.10;;;;;;;24.94;82.70;100402.00;5094122;28;20266;-74
2022/05/15 12:26:51;;;;;;;12.80;6.63;;;;;;;25.11;78.95;100328.78;5106977;28;20205;-77
2022/05/15 12:29:31;;;;;;;11.15;7.03;;;;;;;25.85;76.04;100401.84;5112584;28;20202;-76
2022/05/15 12:31:58;;;;;;;10.23;6.25;;;;;;;26.07;74.09;100397.34;5112443;28;20201;-77
2022/05/15 12:34:31;;;;;;;8.95;6.15;;;;;;;26.55;70.61;100373.03;5112687;28;20194;-76
2022/05/15 12:37:01;;;;;;;12.68;6.60;;;;;;;26.30;70.93;100360.91;5112229;28;20217;-73
2022/05/15 12:39:30;;;;;;;9.55;6.63;;;;;;;26.67;69.30;100374.28;5111307;28;20201;-74
2022/05/15 12:42:02;;;;;;;8.88;6.50;;;;;;;26.96;67.95;100341.88;5112371;28;20201;-74
2022/05/15 12:44:32;;;;;;;17.50;6.60;;;;;;;27.83;64.78;100374.81;5111610;28;20201;-75
2022/05/15 12:47:01;;;;;;;12.02;5.88;;;;;;;27.79;63.60;100371.44;5093274;28;20194;-74
2022/05/15 12:49:32;;;;;;;7.25;5.80;;;;;;;27.98;63.34;100360.69;5112388;28;20250;-74
2022/05/15 12:52:11;;;;;;;9.38;5.93;;;;;;;27.67;63.86;100388.09;5112106;28;20559;-73
2022/05/15 12:54:38;;;;;;;13.82;6.63;;;;;;;27.36;66.07;100380.69;5111442;28;20594;-73
2022/05/15 12:57:11;;;;;;;7.90;5.82;;;;;;;27.42;66.60;100377.75;5112092;28;20302;-74
2022/05/15 12:59:40;;;;;;;7.13;5.10;;;;;;;27.16;68.96;100369.31;5111952;28;20209;-74
2022/05/15 13:02:21;;;;;;;5.60;4.85;;;;;;;27.58;68.07;100375.19;5111998;28;20200;-73
2022/05/15 13:04:51;;;;;;;8.40;5.40;;;;;;;27.77;66.54;100368.00;5103449;28;20238;-78
2022/05/15 13:07:24;;;;;;;6.00;4.43;;;;;;;27.92;66.96;100364.56;5091125;28;20198;-77
2022/05/15 13:09:58;;;;;;;7.80;5.70;;;;;;;26.56;70.30;100331.34;5091729;28;20217;-79
2022/05/15 13:12:26;;;;;;;27.13;18.40;;;;;;;26.76;71.48;100363.19;5090055;28;20690;-77
2022/05/15 13:14:54;;;;;;;13.50;9.23;;;;;;;27.14;70.94;100355.22;5093427;28;20193;-80
2022/05/15 13:17:29;;;;;;;9.15;4.35;;;;;;;27.80;68.86;100353.66;5111154;28;20252;-76
2022/05/15 13:19:57;;;;;;;5.22;4.78;;;;;;;27.86;67.19;100348.03;5111344;28;20188;-77
2022/05/15 13:22:26;;;;;;;5.28;4.78;;;;;;;27.40;67.27;100326.34;5104045;28;20214;-78
2022/05/15 13:24:57;;;;;;;7.63;4.60;;;;;;;27.10;69.31;100355.38;5087135;28;20213;-78
2022/05/15 13:27:27;;;;;;;6.88;5.15;;;;;;;26.90;69.94;100354.56;5111931;28;20208;-78
2022/05/15 13:29:54;;;;;;;5.63;4.63;;;;;;;26.61;72.68;100356.78;5111857;28;20601;-78